Terminal Aerodrome Forecast
Issued by NWS

Home | Current Version | Previous Version | Graphics & Text | Print | Product List | Glossary On
Versions: 1 2 3 4 5 6 7 8 9 10 11 12 13 14
000
FTUS43 KGRB 261738
TAFCWA
TAF
KCWA 261738Z 2618/2718 22004KT P6SM SCT120 BKN250
     FM262000 18005KT P6SM SCT120 SCT250
     FM270000 VRB03KT P6SM SKC
     FM270800 VRB03KT 3SM BR SKC
      TEMPO 2709/2712 1 1/2SM BR BKN012
     FM271200 13005KT P6SM SCT012 SCT250=

USA.gov is the U.S. government's official web portal to all federal, state and local government web resources and services.